Guernsey Island, United Kingdom
Current Conditions -  °F | °C
As of 2:50 PM on Monday 24 Nov 2014 (Local Time) from EGJB Reporting Station
Few Clouds Few Clouds  
Wind Chill: 10°   Ceiling: Unl
Heat Index: 10°   Visibility: 6mi
Dew Point:   Wind: 13mph
Humidity: 76%   Direction: 50°NE
Pressure: 30.24"   Gusts: NA
Location:  49.43°N, 2.6°W
Report Text: EGJB 241350Z 05011KT 020V080 9999 FEW030 10/06 Q1024
Loading
Personal Weather Stations






























Interactive Weather Map New forecast layout! Learn more

10-Day Weather Forecast

Advertisements
Track Severe Weather on mobile